Terminal Aerodrome Forecast
Issued by NWS

Home | Current Version | Previous Version | Text Only | Print | Product List | Glossary On
Versions: 1 2 3 4 5 6 7 8 9 10 11 12 13 14 15 16 17 18 19 20 21 22 23 24 25 26 27 28 29 30 31 32 33 34 35 36 37 38 39 40 41 42 43 44 45 46 47 48
000
FTAK31 PANC 242331
TAFAAQ
TAF
PAAQ 242331Z 2500/2524 34010KT P6SM -SN BKN060
     FM250500 36007KT 5SM -SN BKN030
     FM250800 02005KT P6SM BKN045
     FM251700 10008KT 6SM -SN BKN035
     FM252000 11005KT 2SM -SN BR OVC020=

USA.gov is the U.S. government's official web portal to all federal, state and local government web resources and services.